Skip navigation

RAMMB: Regional and Mesoscale Meteorology Branch logo CIRA: Cooperative Institute for Research in the Atmosphere logo NESDIS: NOAA Environmental Satellite, Data, and Information Service logo

Announcement: Please visit out new web application, SLIDER, for every pixel of real-time GOES-16 and Himawari-8 imagery.

CP012006 - Major Hurricane IOKE

View model data products for this storm.

New: View wind speed probabilities products for this storm

Forecast Track

Time of Latest Forecast: 200609051200

Forecast Hour Latitude Longitude Intensity
0 37.5 149.1 60
12 42.2 154.9 55
24 46.7 163.7 50
36 0 0 0
48 0 0 0
72 0 0 0
96 0 0 0
120 0 0 0

Forecast Track Archive

About Forecast Track

Track History

Synoptic Time Latitude Longitude Intensity
200609051800 37.5 149.1 60
200609051200 37.5 149.1 60
200609050600 35.7 147.4 60
200609050000 32.5 147.5 65
200609041800 32.5 147.5 65
200609041200 30.9 148.1 65
200609040600 29.8 148.8 70
200609040000 28.5 149.9 85
200609031800 27.5 150.8 95
200609031200 26.6 151.8 95
200609030600 25.7 152.4 100
200609030000 25.1 153.5 100
200609021800 24.5 154.8 110
200609021200 24 156.2 110
200609020600 23.6 157.7 110
200609020000 23 159.4 115
200609011800 22.4 160.9 115
200609011200 21.8 162.3 115
200609010600 21.2 163.6 130
200609010330 20.7 164.5 130
200609010327 20.7 164.5 130
200609010322 20.7 164.5 130
200609010315 20.7 164.5 130
200609010300 20.7 164.5 130
200609010245 20.7 164.5 130
200609010230 20.7 164.5 130
200609010215 20.7 164.5 130
200609010200 20.7 164.5 130
200609010145 20.7 164.5 130
200609010130 20.7 164.5 130
200609010115 20.7 164.5 130
200609010100 20.2 165.3 135
200609010045 20.2 165.3 135
200609010030 20.2 165.3 135
200609010015 20.2 165.3 135
200609010000 20.7 164.5 130
200608312345 20.2 165.3 135
200608312330 20.2 165.3 135
200608312315 20.2 165.3 135
200608312300 20.2 165.3 135
200608312257 20.2 165.3 135
200608312250 20.2 165.3 135
200608312249 20.2 165.3 135
200608312247 20.2 165.3 135
200608312245 20.2 165.3 135
200608312230 20.2 165.3 135
200608312215 20.2 165.3 135
200608312200 20.2 165.3 135
200608312145 20.2 165.3 135
200608312130 20.2 165.3 135
200608312115 20.2 165.3 135
200608312100 20.2 165.3 135
200608312045 20.2 165.3 135
200608312030 20.2 165.3 135
200608312016 20.2 165.3 135
200608312000 20.2 165.3 135
200608311945 20.2 165.3 135
200608311930 20.2 165.3 135
200608311915 20.2 165.3 135
200608311900 19.7 166.3 135
200608311847 19.7 166.3 135
200608311845 19.7 166.3 135
200608311830 19.7 166.3 135
200608311815 19.7 166.3 135
200608311800 19.7 166.3 135
200608311745 19.7 166.3 135
200608311730 19.7 166.3 135
200608311715 19.7 166.3 135
200608311700 19.7 166.3 135
200608311645 19.7 166.3 135
200608311630 19.7 166.3 135
200608311615 19.7 166.3 135
200608311600 19.7 166.3 135
200608311545 19.7 166.3 135
200608311530 19.7 166.3 135
200608311515 19.7 166.3 135
200608311500 19.7 166.3 135
200608311445 19.7 166.3 135
200608311430 19.7 166.3 135
200608311415 19.7 166.3 135
200608311400 19.7 166.3 135
200608311345 19.7 166.3 135
200608311330 19.7 166.3 135
200608311315 19.7 166.3 135
200608311300 19.7 166.3 135
200608311245 19.2 167.4 135
200608311230 19.2 167.4 135
200608311215 19.2 167.4 135
200608311200 19.2 167.4 135
200608311145 19.2 167.4 135
200608311130 19.2 167.4 135
200608311115 19.2 167.4 135
200608311100 19.2 167.4 135
200608311045 19.2 167.4 135
200608311030 19.2 167.4 135
200608311015 19.2 167.4 135
200608311000 19.2 167.4 135
200608310945 19.2 167.4 135
200608310930 19.2 167.4 135
200608310915 19.2 167.4 135
200608310900 19.2 167.4 135
200608310845 19.2 167.4 135
200608310830 19.2 167.4 135
200608310815 19.2 167.4 135
200608310800 19.2 167.4 135
200608310745 19.2 167.4 135
200608310730 19.2 167.4 135
200608310715 19.2 167.4 135
200608310700 18.5 168.3 135
200608310645 18.5 168.3 135
200608310630 18.5 168.3 135
200608310615 18.5 168.3 135
200608310600 18.5 168.3 135
200608310545 18.5 168.3 135
200608310530 18.5 168.3 135
200608310515 18.5 168.3 135
200608310500 18.5 168.3 135
200608310445 18.5 168.3 135
200608310430 18.5 168.3 135
200608310415 18.5 168.3 135
200608310400 18.5 168.3 135
200608310345 18.5 168.3 135
200608310343 18.5 168.3 135
200608310339 18.5 168.3 135
200608271145 17.9 178.7 140
200608271130 17.9 178.7 140
200608271115 17.9 178.7 140
200608271100 17.9 178.7 140
200608271045 17.9 178.7 140
200608271030 17.9 178.7 140
200608271015 17.9 178.7 140
200608271000 17.9 178.7 140
200608270945 17.9 178.7 140
200608270930 17.9 178.7 140
200608270915 17.9 178.7 140
200608270900 17.9 178.7 140
200608270845 17.9 178.7 140
200608270830 17.9 178.7 140
200608270815 17.9 178.7 140
200608270800 17.9 178.7 140
200608270745 17.9 178.7 140
200608270730 17.9 178.7 140
200608270715 17.9 178.7 140
200608270700 17.9 178.7 140
200608270645 17.9 178.7 140
200608270630 17.9 178.7 140
200608270615 17.9 178.7 140
200608270600 17.9 178.7 140
200608270545 17.9 178.7 140
200608270530 17.9 178.7 140
200608270515 17.9 178.7 140
200608270500 17.9 178.7 140
200608270445 17.9 178.7 140
200608270430 17.9 178.7 140
200608270415 17.9 178.7 140
200608270400 17.9 178.7 140
200608270345 17.9 178.7 140
200608270330 17.9 178.7 140
200608270315 17.9 178.7 140
200608270300 17.9 178.7 140
200608270245 17.9 178.7 140
200608270230 17.9 178.7 140
200608270215 17.9 178.7 140
200608270200 17.9 178.7 140
200608270145 17.9 178.7 140
200608270130 17.9 178.7 140
200608270115 17.9 178.7 140
200608270100 17.9 178.7 140
200608270045 18.4 -177.7 140
200608270030 18.4 -177.7 140
200608270015 18.4 -177.7 140
200608270000 18.4 -177.7 140
200608262345 18.4 -177.7 140
200608262330 18.4 -177.7 140
200608262315 18.4 -177.7 140
200608262300 18.4 -177.7 140
200608262245 18.4 -177.7 140
200608262230 18.4 -177.7 140
200608262215 18.4 -177.7 140
200608262200 18.4 -177.7 140
200608262145 18.4 -177.7 140
200608262130 18.4 -177.7 140
200608262115 18.4 -177.7 140
200608262100 18.4 -177.7 140
200608262045 18.4 -177.7 140
200608262030 18.4 -177.7 140
200608262015 18.4 -177.7 140
200608262000 18.4 -177.7 140
200608261945 18.4 -177.7 140
200608261930 18.4 -177.7 140
200608261915 18.4 -177.7 140
200608261900 18.4 -177.7 140
200608261845 18.8 -177.4 140
200608261830 18.8 -177.4 140
200608261815 18.8 -177.4 140
200608261800 18.8 -177.4 140
200608261745 18.8 -177.4 140
200608261730 18.8 -177.4 140
200608261715 18.8 -177.4 140
200608261700 18.8 -177.4 140
200608261645 18.8 -177.4 140
200608261630 18.8 -177.4 140
200608261615 18.8 -177.4 140
200608261600 18.8 -177.4 140
200608261545 18.8 -177.4 140
200608261530 18.8 -177.4 140
200608261515 18.8 -177.4 140
200608261500 18.8 -177.4 140
200608261445 18.8 -177.4 140
200608261430 18.8 -177.4 140
200608261415 18.8 -177.4 140
200608261400 18.8 -177.4 140
200608261345 18.8 -177.4 140
200608261330 18.8 -177.4 140
200608261315 19.1 -176.5 130
200608261300 19.1 -176.5 130
200608261245 19.1 -176.5 130
200608261230 19.1 -176.5 130
200608261215 19.1 -176.5 130
200608261200 19.1 -176.5 130
200608261145 19.1 -176.5 130
200608261130 19.1 -176.5 130
200608261115 19.1 -176.5 130
200608261100 19.1 -176.5 130
200608261045 19.1 -176.5 130
200608261030 19.1 -176.5 130
200608261015 19.1 -176.5 130
200608261000 19.1 -176.5 130
200608260945 19.1 -176.5 130
200608260930 19.1 -176.5 130
200608260915 19.1 -176.5 130
200608260900 19.1 -176.5 130
200608260845 19.1 -176.5 130
200608260830 19.1 -176.5 130
200608260800 19.1 -176.5 130
200608260745 19.1 -176.5 130
200608260730 19.1 -176.5 130
200608260700 19.3 -175.8 130
200608260645 19.3 -175.8 130
200608260630 19.3 -175.8 130
200608260615 19.3 -175.8 130
200608260600 19.3 -175.8 130
200608260545 19.3 -175.8 130
200608260530 19.3 -175.8 130
200608260515 19.3 -175.8 130
200608260500 19.3 -175.8 130
200608260445 19.3 -175.8 130
200608260430 19.3 -175.8 130
200608260415 19.3 -175.8 130
200608260400 19.3 -175.8 130
200608260345 19.3 -175.8 130
200608260330 19.3 -175.8 130
200608260315 19.3 -175.8 130
200608260300 19.3 -175.8 130
200608260245 19.3 -175.8 130
200608260230 19.3 -175.8 130
200608260216 19.3 -175.8 130
200608260200 19.3 -175.8 130
200608260130 19.3 -175.8 130
200608260115 19.3 -175.8 130
200608260045 19.2 -175.1 140
200608260030 19.2 -175.1 140
200608260016 19.2 -175.1 140
200608260000 19.2 -175.1 140
200608252345 19.2 -175.1 140
200608252330 19.2 -175.1 140
200608252315 19.2 -175.1 140
200608252300 19.2 -175.1 140
200608252245 19.2 -175.1 140
200608252230 19.2 -175.1 140
200608252215 19.2 -175.1 140
200608252200 19.2 -175.1 140
200608252145 19.2 -175.1 140
200608252130 19.2 -175.1 140
200608252115 19.2 -175.1 140
200608252100 19.2 -175.1 140
200608252045 19.2 -175.1 140
200608252015 19.2 -175.1 140
200608252000 19.2 -175.1 140
200608251945 19.2 -175.1 140
200608251930 19.2 -175.1 140
200608251915 19.2 -174.8 140
200608251900 19.2 -174.8 140
200608251845 19.2 -174.8 140
200608251830 19.2 -174.8 140
200608251815 19.2 -174.8 140
200608251800 19.2 -174.8 140
200608251745 19.2 -174.8 140
200608251730 19.2 -174.8 140
200608251715 19.2 -174.8 140
200608251700 19.2 -174.8 140
200608251645 19.2 -174.8 140
200608251630 19.2 -174.8 140
200608251615 19.2 -174.8 140
200608251600 19.2 -174.8 140
200608251545 19.2 -174.8 140
200608251530 19.2 -174.8 140
200608251515 19.2 -174.8 140
200608251500 19.2 -174.8 140
200608251445 19.2 -174.8 140
200608251430 19.2 -174.8 140
200608251415 19.2 -174.8 140
200608251400 19.2 -174.8 140
200608251345 19.2 -174.8 140
200608251330 19.2 -174.8 140
200608251315 19.2 -174.8 140
200608251300 19.1 -174.2 140
200608251245 19.1 -174.2 140
200608251230 19.1 -174.2 140
200608251215 19.1 -174.2 140
200608251200 19.1 -174.2 140
200608251145 19.1 -174.2 140
200608251130 19.1 -174.2 140
200608251115 19.1 -174.2 140
200608251100 19.1 -174.2 140
200608251045 19.1 -174.2 140
200608251030 19.1 -174.2 140
200608251015 19.1 -174.2 140
200608251000 19.1 -174.2 140
200608250945 19.1 -174.2 140
200608250930 19.1 -174.2 140
200608250915 19.1 -174.2 140
200608250900 19.1 -174.2 140
200608250845 19.1 -174.2 140
200608250830 19.1 -174.2 140
200608250815 19.1 -174.2 140
200608250800 19.1 -174.2 140
200608250745 19.1 -174.2 140
200608250730 19.1 -174.2 140
200608250715 19 -173.4 125
200608250700 19 -173.4 125
200608250645 19 -173.4 125
200608250630 19 -173.4 125
200608250615 19 -173.4 125
200608250600 19 -173.4 125
200608250545 19 -173.4 125
200608250530 19 -173.4 125
200608250515 19 -173.4 125
200608250500 19 -173.4 125
200608250445 19 -173.4 125
200608250430 19 -173.4 125
200608250415 19 -173.4 125
200608250400 19 -173.4 125
200608250345 19 -173.4 125
200608250330 19 -173.4 125
200608250315 19 -173.4 125
200608250300 19 -173.4 125
200608250245 19 -173.4 125
200608250230 19 -173.4 125
200608250200 19 -173.4 125
200608250145 19 -173.4 125
200608250130 19 -173.4 125
200608250115 19 -173.4 125
200608250100 18.7 -173 125
200608250045 18.7 -173 125
200608250030 18.7 -173 125
200608250015 18.7 -173 125
200608250000 18.7 -173 125
200608242345 18.7 -173 125
200608242330 18.7 -173 125
200608242315 18.7 -173 125
200608242300 18.7 -173 125
200608242245 18.7 -173 125
200608242230 18.7 -173 125
200608242215 18.7 -173 125
200608242200 18.7 -173 125
200608242145 18.7 -173 125
200608242130 18.7 -173 125
200608242119 18.7 -173 125
200608242100 18.7 -173 125
200608242045 18.7 -173 125
200608242030 18.7 -173 125
200608242015 18.7 -173 125
200608242000 18.7 -173 125
200608241930 18.7 -173 125
200608241915 18.6 -172.5 115
200608241900 18.6 -172.5 115
200608241845 18.6 -172.5 115
200608241830 18.6 -172.5 115
200608241815 18.6 -172.5 115
200608241800 18.6 -172.5 115
200608241745 18.6 -172.5 115
200608241730 18.6 -172.5 115
200608241715 18.6 -172.5 115
200608241700 18.6 -172.5 115
200608241645 18.6 -172.5 115
200608241630 18.6 -172.5 115
200608241615 18.6 -172.5 115
200608241600 18.6 -172.5 115
200608241545 18.6 -172.5 115
200608241530 18.6 -172.5 115
200608241515 18.6 -172.5 115
200608241500 18.6 -172.5 115
200608241445 18.6 -172.5 115
200608241430 18.6 -172.5 115
200608241415 18.6 -172.5 115
200608241400 18.6 -172.5 115
200608241345 18.6 -172.5 115
200608241330 18.6 -172.5 115
200608241315 18.6 -172.5 115
200608241300 18.6 -172.5 115
200608241245 18.5 -172 100
200608241230 18.5 -172 100
200608241215 18.5 -172 100
200608241200 18.5 -172 100
200608241145 18.5 -172 100
200608241130 18.5 -172 100
200608241115 18.5 -172 100
200608241100 18.5 -172 100
200608241045 18.5 -172 100
200608241030 18.5 -172 100
200608241015 18.5 -172 100
200608241000 18.5 -172 100
200608240945 18.5 -172 100
200608240930 18.5 -172 100
200608240915 18.5 -172 100
200608240900 18.5 -172 100
200608240845 18.5 -172 100
200608240830 18.5 -172 100
200608240815 18.5 -172 100
200608240800 18.5 -172 100
200608240745 18.5 -172 100
200608240730 18.5 -172 100
200608240715 18.1 -171.4 90
200608240700 18.1 -171.4 90
200608240645 18.1 -171.4 90
200608240630 18.1 -171.4 90
200608240615 18.1 -171.4 90
200608240600 18.1 -171.4 90
200608240545 18.1 -171.4 90
200608240530 18.1 -171.4 90
200608240515 18.1 -171.4 90
200608240500 18.1 -171.4 90
200608240445 18.1 -171.4 90
200608240430 18.1 -171.4 90
200608240415 18.1 -171.4 90
200608240400 18.1 -171.4 90
200608240345 18.1 -171.4 90
200608240330 18.1 -171.4 90
200608240315 18.1 -171.4 90
200608240300 18.1 -171.4 90
200608240245 18.1 -171.4 90
200608240215 18.1 -171.4 90
200608240200 18.1 -171.4 90
200608240145 18.1 -171.4 90
200608240130 17.6 -170.9 90
200608240115 17.6 -170.9 90
200608240100 17.6 -170.9 90
200608240045 17.6 -170.9 90
200608240030 17.6 -170.9 90
200608240015 17.6 -170.9 90
200608240000 17.6 -170.9 90
200608232345 17.6 -170.9 90
200608232330 17.6 -170.9 90
200608232315 17.6 -170.9 90
200608232300 17.6 -170.9 90
200608232245 17.6 -170.9 90
200608232230 17.6 -170.9 90
200608232215 17.6 -170.9 90
200608232200 17.6 -170.9 90
200608232145 17.6 -170.9 90
200608232130 17.6 -170.9 90
200608232115 17.6 -170.9 90
200608232100 17.6 -170.9 90
200608232045 17.6 -170.9 90
200608232030 17.6 -170.9 90
200608232015 17.6 -170.9 90
200608232000 17.6 -170.9 90
200608231945 17.6 -170.9 90
200608231930 17.6 -170.9 90
200608231915 17.6 -170.9 90
200608231900 17.6 -170.9 90
200608231845 17.3 -170.5 90
200608231830 17.3 -170.5 90
200608231815 17.3 -170.5 90
200608231800 17.3 -170.5 90
200608231745 17.3 -170.5 90
200608231730 17.3 -170.5 90
200608231715 17.3 -170.5 90
200608231700 17.3 -170.5 90
200608231645 17.3 -170.5 90
200608231630 17.3 -170.5 90
200608231615 17.3 -170.5 90
200608231600 17.3 -170.5 90
200608231545 17.3 -170.5 90
200608231530 17.3 -170.5 90
200608231515 17.3 -170.5 90
200608231500 17.3 -170.5 90
200608231445 17.3 -170.5 90
200608231430 17.3 -170.5 90
200608231415 17.3 -170.5 90
200608231400 17.3 -170.5 90
200608231345 17.3 -170.5 90
200608231330 17.3 -170.5 90
200608231315 16.9 -170.2 90
200608231300 16.9 -170.2 90
200608231245 16.9 -170.2 90
200608231230 16.9 -170.2 90
200608231215 16.9 -170.2 90
200608231200 16.9 -170.2 90
200608231145 16.9 -170.2 90
200608231130 16.9 -170.2 90
200608231115 16.9 -170.2 90
200608231100 16.9 -170.2 90
200608231045 16.9 -170.2 90
200608231030 16.9 -170.2 90
200608231015 16.9 -170.2 90
200608231000 16.9 -170.2 90
200608230945 16.9 -170.2 90
200608230930 16.9 -170.2 90
200608230915 16.9 -170.2 90
200608230900 16.9 -170.2 90
200608230845 16.9 -170.2 90
200608230830 16.9 -170.2 90
200608230815 16.9 -170.2 90
200608230800 16.9 -170.2 90
200608230745 16.9 -170.2 90
200608230730 16.9 -170.2 90
200608230715 16.3 -169.9 90
200608230700 16.3 -169.9 90
200608230645 16.3 -169.9 90
200608230630 16.3 -169.9 90
200608230615 16.3 -169.9 90
200608230600 16.3 -169.9 90
200608230545 16.3 -169.9 90
200608230530 16.3 -169.9 90
200608230515 16.3 -169.9 90
200608230500 16.3 -169.9 90
200608230445 16.3 -169.9 90
200608230430 16.3 -169.9 90
200608230415 16.3 -169.9 90
200608230400 16.3 -169.9 90
200608230345 16.3 -169.9 90
200608230330 16.3 -169.9 90
200608230315 16.3 -169.9 90
200608230300 16.3 -169.9 90
200608230245 16.3 -169.9 90
200608230230 16.3 -169.9 90
200608230215 16.3 -169.9 90
200608230200 16.3 -169.9 90
200608230145 16.3 -169.9 90
200608230130 16.3 -169.9 90
200608230115 16.3 -169.9 90
200608230100 16.3 -169.9 90
200608230045 15.9 -169.4 90
200608230030 15.9 -169.4 90
200608230015 15.9 -169.4 90
200608230000 15.9 -169.4 90
200608222345 15.9 -169.4 90
200608222330 15.9 -169.4 90
200608222315 15.9 -169.4 90
200608222300 15.9 -169.4 90
200608222245 15.9 -169.4 90
200608222230 15.9 -169.4 90
200608222215 15.9 -169.4 90
200608222200 15.9 -169.4 90
200608222145 15.9 -169.4 90
200608222130 15.9 -169.4 90
200608222115 15.9 -169.4 90
200608222100 15.9 -169.4 90
200608222045 15.9 -169.4 90
200608222030 15.9 -169.4 90
200608222015 15.9 -169.4 90
200608222000 15.9 -169.4 90
200608221945 15.9 -169.3 90
200608221930 15.9 -169.3 90
200608221915 15.9 -169.3 90
200608221900 15.2 -168.5 115
200608221845 15.2 -168.5 115
200608221830 15.2 -168.5 115
200608221815 15.2 -168.5 115
200608221800 15.2 -168.5 115
200608221745 15.2 -168.5 115
200608221730 15.2 -168.5 115
200608221715 15.2 -168.5 115
200608221700 15.2 -168.5 115
200608221645 15.2 -168.5 115
200608221630 15.2 -168.5 115
200608221615 15.2 -168.5 115
200608221600 15.2 -168.5 115
200608221545 15.2 -168.5 115
200608221530 15.2 -168.5 115
200608221515 15.2 -168.5 115
200608221500 15.2 -168.5 115
200608221445 15.2 -168.5 115
200608221430 15.2 -168.5 115
200608221415 15.2 -168.5 115
200608221400 15.2 -168.5 115
200608221345 15.2 -168.5 115
200608221330 15.2 -168.5 115
200608221315 14.5 -167.7 115
200608221300 14.5 -167.7 115
200608221245 14.5 -167.7 115
200608221230 14.5 -167.7 115
200608221215 14.5 -167.7 115
200608221200 14.5 -167.7 115
200608221145 14.5 -167.7 115
200608221130 14.5 -167.7 115
200608221115 14.5 -167.7 115
200608221100 14.5 -167.7 115
200608221045 14.5 -167.7 115
200608221030 14.5 -167.7 115
200608221015 14.5 -167.7 115
200608221000 14.5 -167.7 115
200608220945 14.5 -167.7 115
200608220930 14.5 -167.7 115
200608220915 14.5 -167.7 115
200608220900 14.5 -167.7 115
200608220845 14.5 -167.7 115
200608220830 14.5 -167.7 115
200608220815 14.5 -167.7 115
200608220800 14.5 -167.7 115
200608220745 14.5 -167.7 115
200608220730 14.5 -167.7 115
200608220715 14.5 -167.7 115
200608220700 13.5 -167 115
200608220645 13.5 -167 115
200608220630 13.5 -167 115
200608220615 13.5 -167 115
200608220600 13.5 -167 115
200608220545 13.5 -167 115
200608220530 13.5 -167 115
200608220515 13.5 -167 115
200608220500 13.5 -167 115
200608220445 13.5 -167 115
200608220430 13.5 -167 115
200608220415 13.5 -167 115
200608220400 13.5 -167 115
200608220345 13.5 -167 115
200608220330 13.5 -167 115
200608220315 13.5 -167 115
200608220300 13.5 -167 115
200608220245 13.5 -167 115
200608220230 13.5 -167 115
200608220215 13.5 -167 115
200608220200 13.5 -167 115
200608220145 13.5 -167 115
200608220130 13.5 -167 115
200608220100 12.6 -165.9 100
200608220045 12.6 -165.9 100
200608220030 12.6 -165.9 100
200608220015 12.6 -165.9 100
200608220000 12.6 -165.9 100
200608212345 12.6 -165.9 100
200608212330 12.6 -165.9 100
200608212315 12.6 -165.9 100
200608212300 12.6 -165.9 100
200608212245 12.6 -165.9 100
200608212230 12.6 -165.9 100
200608212215 12.6 -165.9 100
200608212200 12.6 -165.9 100
200608212145 12.6 -165.9 100
200608212130 12.6 -165.9 100
200608212115 12.6 -165.9 100
200608212100 12.6 -165.9 100
200608212045 12.6 -165.9 100
200608212030 12.6 -165.9 100
200608212015 12.6 -165.9 100
200608212000 12.6 -165.9 100
200608211945 12.6 -165.9 100
200608211930 11.9 -165.3 75
200608211915 11.9 -165.3 75
200608211900 11.9 -165.3 75
200608211845 11.9 -165.3 75
200608211830 11.9 -165.3 75
200608211815 11.9 -165.3 75
200608211800 11.9 -165.3 75
200608211745 11.9 -165.3 75
200608211730 11.9 -165.3 75
200608211715 11.9 -165.3 75
200608211700 11.9 -165.3 75
200608211645 11.9 -165.3 75
200608211630 11.9 -165.3 75
200608211615 11.9 -165.3 75
200608211600 11.9 -165.3 75
200608211545 11.9 -165.3 75
200608211530 11.9 -165.3 75
200608211515 11.9 -165.3 75
200608211500 11.9 -165.3 75
200608211445 11.9 -165.3 75
200608211430 11.9 -165.3 75
200608211415 11.9 -165.3 75
200608211400 11.9 -165.3 75
200608211345 11.9 -165.3 75
200608211330 11.9 -165.3 75
200608211315 11.9 -165.3 75
200608211300 11.4 -164.5 70
200608211245 11.4 -164.5 70
200608211230 11.4 -164.5 70
200608211215 11.4 -164.5 70
200608211200 11.4 -164.5 70
200608211145 11.4 -164.5 70
200608211130 11.4 -164.5 70
200608211115 11.4 -164.5 70
200608211100 11.4 -164.5 70
200608211045 11.4 -164.5 70
200608211030 11.4 -164.5 70
200608211015 11.4 -164.5 70
200608211000 11.4 -164.5 70
200608210945 11.4 -164.5 70
200608210930 11.4 -164.5 70
200608210915 11.4 -164.5 70
200608210900 11.4 -164.5 70
200608210845 11.4 -164.5 70
200608210830 11.4 -164.5 70
200608210815 11.4 -164.5 70
200608210800 11.4 -164.5 70
200608210745 11.4 -164.5 70
200608210730 11.4 -164.5 70
200608210715 11.2 -163.2 65
200608210700 11.2 -163.2 65
200608210645 11.2 -163.2 65
200608210630 11.2 -163.2 65
200608210615 11.2 -163.2 65
200608210600 11.2 -163.2 65
200608210545 11.2 -163.2 65
200608210530 11.2 -163.2 65
200608210515 11.2 -163.2 65
200608210500 11.2 -163.2 65
200608210445 11.2 -163.2 65
200608210430 11.2 -163.2 65
200608210415 11.2 -163.2 65
200608210400 11.2 -163.2 65
200608210345 11.2 -163.2 65
200608210330 11.2 -163.2 65
200608210315 11.2 -163.2 65
200608210300 11.2 -163.2 65
200608210245 11.2 -163.2 65
200608210230 11.2 -163.2 65
200608210215 11.2 -163.2 65
200608210200 11.2 -163.2 65
200608210145 11 -161.9 45
200608210130 11 -161.9 45
200608210115 11 -161.9 45
200608210100 11 -161.9 45
200608210045 11 -161.9 45
200608210030 11 -161.9 45
200608210015 11 -161.9 45
200608210000 11 -161.9 45
200608202345 11 -161.9 45
200608202330 11 -161.9 45
200608202315 11 -161.9 45
200608202300 11 -161.9 45
200608202245 11 -161.9 45
200608202230 11 -161.9 45
200608202215 11 -161.9 45
200608202200 11 -161.9 45
200608202145 11 -161.9 45
200608202130 11 -161.9 45
200608202115 11 -161.9 45
200608202100 11 -161.9 45
200608202045 11 -161.9 45
200608202030 11 -161.9 45
200608202015 11 -161.9 45
200608202000 11 -161.9 45
200608201945 11 -161.9 45
200608201930 10.7 -160.2 35
200608201915 10.7 -160.2 35
200608201900 10.7 -160.2 35
200608201845 10.7 -160.2 35
200608201830 10.7 -160.2 35
200608201815 10.7 -160.2 35
200608201800 10.7 -160.2 35
200608201745 10.7 -160.2 35
200608201730 10.7 -160.2 35
200608201715 10.7 -160.2 35
200608201700 10.7 -160.2 35
200608201645 10.7 -160.2 35
200608201630 10.7 -160.2 35
200608201615 10.7 -160.2 35
200608201600 10.7 -160.2 35
200608201545 10.7 -160.2 35
200608201530 10.7 -160.2 35
200608201515 10.7 -160.2 35
200608201500 10.7 -160.2 35
200608201445 10.7 -160.2 35
200608201430 10.7 -160.2 35
200608201415 10.7 -160.2 35
200608201400 10.4 -158.5 35
200608201345 10.4 -158.5 35
200608201330 10.4 -158.5 35
200608201315 10.4 -158.5 35
200608201300 10.4 -158.5 35
200608201245 10.4 -158.5 35
200608201230 10.4 -158.5 35
200608201215 10.4 -158.5 35
200608201200 10.4 -158.5 35
200608201145 10.4 -158.5 35
200608201130 10.4 -158.5 35
200608201115 10.4 -158.5 35
200608201100 10.4 -158.5 35
200608201045 10.4 -158.5 35
200608201030 10.4 -158.5 35
200608201015 10.4 -158.5 35
200608201000 10.4 -158.5 35
200608200945 10.4 -158.5 35
200608200930 10.4 -158.5 35
200608200915 10.4 -158.5 35
200608200900 10.4 -158.5 35
200608200845 10.4 -158.5 35
200608200830 10.4 -158.5 35
200608200815 10.4 -158.5 35
200608200800 10.4 -158.5 35
200608200745 10 -157.7 25
200608200730 10 -157.7 25
200608200715 10 -157.7 25
200608200700 10 -157.7 25
200608200645 10 -157.7 25
200608200630 10 -157.7 25
200608200615 10 -157.7 25
200608200600 10 -157.7 25
200608200545 10 -157.7 25
200608200530 10 -157.7 25
200608200515 10 -157.7 25
200608200500 10 -157.7 25
200608200445 10 -157.7 25
200608200430 10 -157.7 25
200608200415 10 -157.7 25
200608200400 10 -157.7 25
200608200345 10 -157.7 25
200608200330 10 -157.7 25
200608200315 10 -157.7 25

About Track History

Enhanced Infrared (IR) Imagery (4 km Mercator)

Loop | Latest Image | Archive | About

Time of This Image: 200608310300

AMSU Microwave 89 GHz Imagery (4 km Mercator)

No Data Available

IR/WV/Microwave RGB (IR [R], WV [G], MI89 [B])

No Data Available

Storm Relative 1 km Geostationary Visible Imagery

No Data Available

2 km Storm Relative IR Imagery with BD Enhancement Curve

No Data Available

Enhanced Infrared (IR) Imagery (1 km Mercator, MODIS/AVHRR)

No Data Available

Day/Night Visible Imagery VIIRS

No Data Available

Day/Night DNB Imagery VIIRS

No Data Available

Enhanced Infrared (IR) VIIRS

No Data Available

Visible Imagery (1 km Mercator, MODIS/AVHRR)

No Data Available

2km Natural Color Imagery

No Data Available

Storm Relative 16 km Geostationary Water Vapor Imagery

No Data Available

Storm Relative 16 km Microwave-Based Total Precipitable Water Imagery

No Data Available

Multiplatform Satellite Surface Wind Analysis (Experimental)

No Data Available

Aircraft-based Tropical Cyclone Surface Wind Analysis

No Data Available

Ocean Heat Content & Forecast Track

No Data Available

Multiplatform Tropical Cyclone Kinetic Energy and Intensity

No Data Available

Multiplatform Tropical Cyclone MSLP and Maximum Winds

No Data Available

Digital Dvorak

No Data Available

AMSU Intensity Time Series

No Data Available

Collocation of AMSU and Dropsonde Soundings

No Data Available

Collocation of ATMS and Dropsonde Soundings

No Data Available

ATMS Maximum Potential Intensity

No Data Available

IR-based TC size

No Data Available

Time Series of the Simplified Holland B parameter calculated from the TC Vitals

No Data Available

Satellite-Based 34-kt Wind Radii Estimates

No Data Available

Satellite-Based 50-kt Wind Radii Estimates

No Data Available

Satellite-Based 64-kt Wind Radii Estimates

No Data Available

Dvorak Fix-Based Wind Radii (Text; ATCF ANAL fixes)

No Data Available

Eye Probability Forecast

No Data Available

AMSU Radial/Height Cross Sections

No Data Available

AMSU Area-Averaged Wind Shears and Layer Means

No Data Available